sensor_id;sensor_type;location;lat;lon;timestamp;temperature;humidity
10388;DHT22;5240;51.128;4.566;2023-09-12T00:00:30;20.60;99.90
10388;DHT22;5240;51.128;4.566;2023-09-12T00:02:58;20.50;99.90
10388;DHT22;5240;51.128;4.566;2023-09-12T00:05:25;20.50;99.90
10388;DHT22;5240;51.128;4.566;2023-09-12T00:07:52;20.50;99.90
10388;DHT22;5240;51.128;4.566;2023-09-12T00:10:20;20.40;99.90
10388;DHT22;5240;51.128;4.566;2023-09-12T00:12:47;20.40;99.90
10388;DHT22;5240;51.128;4.566;2023-09-12T00:15:14;20.30;99.90
10388;DHT22;5240;51.128;4.566;2023-09-12T00:17:41;20.20;99.90
10388;DHT22;5240;51.128;4.566;2023-09-12T00:20:10;20.20;99.90
10388;DHT22;5240;51.128;4.566;2023-09-12T00:22:38;20.20;99.90
10388;DHT22;5240;51.128;4.566;2023-09-12T00:25:05;20.30;99.90
10388;DHT22;5240;51.128;4.566;2023-09-12T00:27:32;20.30;99.90
10388;DHT22;5240;51.128;4.566;2023-09-12T00:29:59;20.30;99.90
10388;DHT22;5240;51.128;4.566;2023-09-12T00:32:26;20.30;99.90
10388;DHT22;5240;51.128;4.566;2023-09-12T00:34:53;20.30;99.90
10388;DHT22;5240;51.128;4.566;2023-09-12T00:37:22;20.30;99.90
10388;DHT22;5240;51.128;4.566;2023-09-12T00:39:48;20.20;99.90
10388;DHT22;5240;51.128;4.566;2023-09-12T00:42:16;20.20;99.90
10388;DHT22;5240;51.128;4.566;2023-09-12T00:44:43;20.20;99.90
10388;DHT22;5240;51.128;4.566;2023-09-12T00:47:10;20.10;99.90
10388;DHT22;5240;51.128;4.566;2023-09-12T00:49:38;20.10;99.90
10388;DHT22;5240;51.128;4.566;2023-09-12T00:52:06;20.10;99.90
10388;DHT22;5240;51.128;4.566;2023-09-12T00:54:35;20.10;99.90
10388;DHT22;5240;51.128;4.566;2023-09-12T00:57:02;20.00;99.90
10388;DHT22;5240;51.128;4.566;2023-09-12T00:59:29;20.10;99.90
10388;DHT22;5240;51.128;4.566;2023-09-12T01:01:57;20.10;99.90
10388;DHT22;5240;51.128;4.566;2023-09-12T01:04:24;20.10;99.90
10388;DHT22;5240;51.128;4.566;2023-09-12T01:06:52;20.20;99.90
10388;DHT22;5240;51.128;4.566;2023-09-12T01:09:19;20.10;99.90
10388;DHT22;5240;51.128;4.566;2023-09-12T01:11:47;20.20;99.90
10388;DHT22;5240;51.128;4.566;2023-09-12T01:14:14;20.10;99.90
10388;DHT22;5240;51.128;4.566;2023-09-12T01:16:41;20.10;99.90
10388;DHT22;5240;51.128;4.566;2023-09-12T01:19:10;20.10;99.90
10388;DHT22;5240;51.128;4.566;2023-09-12T01:22:21;20.00;99.90
10388;DHT22;5240;51.128;4.566;2023-09-12T01:25:07;20.00;99.90
10388;DHT22;5240;51.128;4.566;2023-09-12T01:27:38;19.90;99.90
10388;DHT22;5240;51.128;4.566;2023-09-12T01:30:08;19.80;99.90
10388;DHT22;5240;51.128;4.566;2023-09-12T01:32:37;19.80;99.90
10388;DHT22;5240;51.128;4.566;2023-09-12T01:35:06;19.80;99.90
10388;DHT22;5240;51.128;4.566;2023-09-12T01:37:33;19.70;99.90
10388;DHT22;5240;51.128;4.566;2023-09-12T01:40:01;19.70;99.90
10388;DHT22;5240;51.128;4.566;2023-09-12T01:42:34;19.70;99.90
10388;DHT22;5240;51.128;4.566;2023-09-12T01:45:04;19.70;99.90
10388;DHT22;5240;51.128;4.566;2023-09-12T01:47:31;19.70;99.90
10388;DHT22;5240;51.128;4.566;2023-09-12T01:50:01;19.70;99.90
10388;DHT22;5240;51.128;4.566;2023-09-12T01:52:29;19.80;99.90
10388;DHT22;5240;51.128;4.566;2023-09-12T01:54:56;19.80;99.90
10388;DHT22;5240;51.128;4.566;2023-09-12T01:57:27;19.70;99.90
10388;DHT22;5240;51.128;4.566;2023-09-12T01:59:54;19.70;99.90
10388;DHT22;5240;51.128;4.566;2023-09-12T02:02:22;19.70;99.90
10388;DHT22;5240;51.128;4.566;2023-09-12T02:04:58;19.60;99.90
10388;DHT22;5240;51.128;4.566;2023-09-12T02:07:31;19.60;99.90
10388;DHT22;5240;51.128;4.566;2023-09-12T02:09:59;19.60;99.90
10388;DHT22;5240;51.128;4.566;2023-09-12T02:12:27;19.70;99.90
10388;DHT22;5240;51.128;4.566;2023-09-12T02:14:54;19.70;99.90
10388;DHT22;5240;51.128;4.566;2023-09-12T02:17:22;19.60;99.90
10388;DHT22;5240;51.128;4.566;2023-09-12T02:19:49;19.60;99.90
10388;DHT22;5240;51.128;4.566;2023-09-12T02:22:16;19.70;99.90
10388;DHT22;5240;51.128;4.566;2023-09-12T02:24:43;19.60;99.90
10388;DHT22;5240;51.128;4.566;2023-09-12T02:27:10;19.70;99.90
10388;DHT22;5240;51.128;4.566;2023-09-12T02:29:38;19.70;99.90
10388;DHT22;5240;51.128;4.566;2023-09-12T02:32:05;19.70;99.90
10388;DHT22;5240;51.128;4.566;2023-09-12T02:34:33;19.80;99.90
10388;DHT22;5240;51.128;4.566;2023-09-12T02:37:00;19.80;99.90
10388;DHT22;5240;51.128;4.566;2023-09-12T02:39:27;19.80;99.90
10388;DHT22;5240;51.128;4.566;2023-09-12T02:41:54;19.90;99.90
10388;DHT22;5240;51.128;4.566;2023-09-12T02:44:21;19.90;99.90
10388;DHT22;5240;51.128;4.566;2023-09-12T02:46:48;19.90;99.90
10388;DHT22;5240;51.128;4.566;2023-09-12T02:49:15;20.00;99.90
10388;DHT22;5240;51.128;4.566;2023-09-12T02:51:45;20.10;99.90
10388;DHT22;5240;51.128;4.566;2023-09-12T02:54:12;20.10;99.90
10388;DHT22;5240;51.128;4.566;2023-09-12T02:56:39;20.10;99.90
10388;DHT22;5240;51.128;4.566;2023-09-12T02:59:06;20.20;99.90
10388;DHT22;5240;51.128;4.566;2023-09-12T03:01:33;20.20;99.90
10388;DHT22;5240;51.128;4.566;2023-09-12T03:04:00;20.30;99.90
10388;DHT22;5240;51.128;4.566;2023-09-12T03:06:28;20.30;99.90
10388;DHT22;5240;51.128;4.566;2023-09-12T03:08:57;20.30;99.90
10388;DHT22;5240;51.128;4.566;2023-09-12T03:11:26;20.30;99.90
10388;DHT22;5240;51.128;4.566;2023-09-12T03:13:53;20.30;99.90
10388;DHT22;5240;51.128;4.566;2023-09-12T03:16:20;20.20;99.90
10388;DHT22;5240;51.128;4.566;2023-09-12T03:18:49;20.20;99.90
10388;DHT22;5240;51.128;4.566;2023-09-12T03:21:16;20.20;99.90
10388;DHT22;5240;51.128;4.566;2023-09-12T03:23:43;20.10;99.90
10388;DHT22;5240;51.128;4.566;2023-09-12T03:26:11;20.00;99.90
10388;DHT22;5240;51.128;4.566;2023-09-12T03:28:38;19.90;99.90
10388;DHT22;5240;51.128;4.566;2023-09-12T03:31:08;19.90;99.90
10388;DHT22;5240;51.128;4.566;2023-09-12T03:33:37;19.90;99.90
10388;DHT22;5240;51.128;4.566;2023-09-12T03:36:05;20.00;99.90
10388;DHT22;5240;51.128;4.566;2023-09-12T03:38:32;19.90;99.90
10388;DHT22;5240;51.128;4.566;2023-09-12T03:40:59;19.90;99.90
10388;DHT22;5240;51.128;4.566;2023-09-12T03:43:28;19.90;99.90
10388;DHT22;5240;51.128;4.566;2023-09-12T03:45:55;19.90;99.90
10388;DHT22;5240;51.128;4.566;2023-09-12T03:48:22;19.90;99.90
10388;DHT22;5240;51.128;4.566;2023-09-12T03:50:49;19.90;99.90
10388;DHT22;5240;51.128;4.566;2023-09-12T03:53:16;19.90;99.90
10388;DHT22;5240;51.128;4.566;2023-09-12T03:55:43;19.90;99.90
10388;DHT22;5240;51.128;4.566;2023-09-12T03:58:10;19.90;99.90
10388;DHT22;5240;51.128;4.566;2023-09-12T04:00:38;19.90;99.90
10388;DHT22;5240;51.128;4.566;2023-09-12T04:03:05;19.90;99.90
10388;DHT22;5240;51.128;4.566;2023-09-12T04:05:32;19.80;99.90
10388;DHT22;5240;51.128;4.566;2023-09-12T04:07:59;19.80;99.90
10388;DHT22;5240;51.128;4.566;2023-09-12T04:10:26;19.80;99.90
10388;DHT22;5240;51.128;4.566;2023-09-12T04:12:53;19.80;99.90
10388;DHT22;5240;51.128;4.566;2023-09-12T04:15:20;19.80;99.90
10388;DHT22;5240;51.128;4.566;2023-09-12T04:17:48;19.80;99.90
10388;DHT22;5240;51.128;4.566;2023-09-12T04:20:15;19.80;99.90
10388;DHT22;5240;51.128;4.566;2023-09-12T04:22:42;19.80;99.90
10388;DHT22;5240;51.128;4.566;2023-09-12T04:25:09;19.90;99.90
10388;DHT22;5240;51.128;4.566;2023-09-12T04:27:36;19.90;99.90
10388;DHT22;5240;51.128;4.566;2023-09-12T04:30:04;20.00;99.90
10388;DHT22;5240;51.128;4.566;2023-09-12T04:32:31;19.90;99.90
10388;DHT22;5240;51.128;4.566;2023-09-12T04:35:00;19.90;99.90
10388;DHT22;5240;51.128;4.566;2023-09-12T04:37:27;19.90;99.90
10388;DHT22;5240;51.128;4.566;2023-09-12T04:39:54;19.90;99.90
10388;DHT22;5240;51.128;4.566;2023-09-12T04:42:21;20.00;99.90
10388;DHT22;5240;51.128;4.566;2023-09-12T04:44:48;20.10;99.90
10388;DHT22;5240;51.128;4.566;2023-09-12T04:47:15;20.20;99.90
10388;DHT22;5240;51.128;4.566;2023-09-12T04:49:43;20.30;99.90
10388;DHT22;5240;51.128;4.566;2023-09-12T04:52:12;20.20;99.90
10388;DHT22;5240;51.128;4.566;2023-09-12T04:54:39;20.20;99.90
10388;DHT22;5240;51.128;4.566;2023-09-12T04:57:07;20.20;99.90
10388;DHT22;5240;51.128;4.566;2023-09-12T04:59:34;20.20;99.90
10388;DHT22;5240;51.128;4.566;2023-09-12T05:02:01;20.20;99.90
10388;DHT22;5240;51.128;4.566;2023-09-12T05:04:28;20.30;99.90
10388;DHT22;5240;51.128;4.566;2023-09-12T05:06:55;20.40;99.90
10388;DHT22;5240;51.128;4.566;2023-09-12T05:09:24;20.30;99.90
10388;DHT22;5240;51.128;4.566;2023-09-12T05:11:51;20.30;99.90
10388;DHT22;5240;51.128;4.566;2023-09-12T05:14:18;20.20;99.90
10388;DHT22;5240;51.128;4.566;2023-09-12T05:16:45;20.20;99.90
10388;DHT22;5240;51.128;4.566;2023-09-12T05:19:11;20.10;99.90
10388;DHT22;5240;51.128;4.566;2023-09-12T05:21:40;20.00;99.90
10388;DHT22;5240;51.128;4.566;2023-09-12T05:24:07;20.10;99.90
10388;DHT22;5240;51.128;4.566;2023-09-12T05:26:35;20.10;99.90
10388;DHT22;5240;51.128;4.566;2023-09-12T05:29:02;19.90;99.90
10388;DHT22;5240;51.128;4.566;2023-09-12T05:31:31;20.00;99.90
10388;DHT22;5240;51.128;4.566;2023-09-12T05:33:58;20.00;99.90
10388;DHT22;5240;51.128;4.566;2023-09-12T05:36:25;19.90;99.90
10388;DHT22;5240;51.128;4.566;2023-09-12T05:38:52;19.90;99.90
10388;DHT22;5240;51.128;4.566;2023-09-12T05:41:19;19.80;99.90
10388;DHT22;5240;51.128;4.566;2023-09-12T05:43:47;19.70;99.90
10388;DHT22;5240;51.128;4.566;2023-09-12T05:46:14;19.80;99.90
10388;DHT22;5240;51.128;4.566;2023-09-12T05:48:41;19.70;99.90
10388;DHT22;5240;51.128;4.566;2023-09-12T05:51:08;19.70;99.90
10388;DHT22;5240;51.128;4.566;2023-09-12T05:53:35;19.60;99.90
10388;DHT22;5240;51.128;4.566;2023-09-12T05:56:02;19.60;99.90
10388;DHT22;5240;51.128;4.566;2023-09-12T05:58:29;19.60;99.90
10388;DHT22;5240;51.128;4.566;2023-09-12T06:00:57;19.50;99.90
10388;DHT22;5240;51.128;4.566;2023-09-12T06:03:24;19.60;99.90
10388;DHT22;5240;51.128;4.566;2023-09-12T06:05:51;19.50;99.90
10388;DHT22;5240;51.128;4.566;2023-09-12T06:08:18;19.50;99.90
10388;DHT22;5240;51.128;4.566;2023-09-12T06:10:45;19.60;99.90
10388;DHT22;5240;51.128;4.566;2023-09-12T06:13:14;19.60;99.90
10388;DHT22;5240;51.128;4.566;2023-09-12T06:15:41;19.60;99.90
10388;DHT22;5240;51.128;4.566;2023-09-12T06:18:09;19.60;99.90
10388;DHT22;5240;51.128;4.566;2023-09-12T06:20:36;19.60;99.90
10388;DHT22;5240;51.128;4.566;2023-09-12T06:23:05;19.60;99.90
10388;DHT22;5240;51.128;4.566;2023-09-12T06:25:34;19.60;99.90
10388;DHT22;5240;51.128;4.566;2023-09-12T06:28:05;19.60;99.90
10388;DHT22;5240;51.128;4.566;2023-09-12T06:30:33;19.70;99.90
10388;DHT22;5240;51.128;4.566;2023-09-12T06:33:00;19.70;99.90
10388;DHT22;5240;51.128;4.566;2023-09-12T06:35:29;19.80;99.90
10388;DHT22;5240;51.128;4.566;2023-09-12T06:37:56;19.80;99.90
10388;DHT22;5240;51.128;4.566;2023-09-12T06:40:22;19.80;99.90
10388;DHT22;5240;51.128;4.566;2023-09-12T06:42:50;19.90;99.90
10388;DHT22;5240;51.128;4.566;2023-09-12T06:45:17;19.80;99.90
10388;DHT22;5240;51.128;4.566;2023-09-12T06:47:43;19.90;99.90
10388;DHT22;5240;51.128;4.566;2023-09-12T06:50:10;19.90;99.90
10388;DHT22;5240;51.128;4.566;2023-09-12T06:52:39;19.90;99.90
10388;DHT22;5240;51.128;4.566;2023-09-12T06:55:07;19.90;99.90
10388;DHT22;5240;51.128;4.566;2023-09-12T06:57:34;19.90;99.90
10388;DHT22;5240;51.128;4.566;2023-09-12T07:00:03;20.00;99.90
10388;DHT22;5240;51.128;4.566;2023-09-12T07:02:32;20.00;99.90
10388;DHT22;5240;51.128;4.566;2023-09-12T07:04:59;20.10;99.90
10388;DHT22;5240;51.128;4.566;2023-09-12T07:07:26;20.20;99.90
10388;DHT22;5240;51.128;4.566;2023-09-12T07:09:55;20.20;99.90
10388;DHT22;5240;51.128;4.566;2023-09-12T07:12:22;20.20;99.90
10388;DHT22;5240;51.128;4.566;2023-09-12T07:14:49;20.20;99.90
10388;DHT22;5240;51.128;4.566;2023-09-12T07:17:17;20.20;99.90
10388;DHT22;5240;51.128;4.566;2023-09-12T07:19:44;20.30;99.90
10388;DHT22;5240;51.128;4.566;2023-09-12T07:22:11;20.30;99.90
10388;DHT22;5240;51.128;4.566;2023-09-12T07:24:38;20.30;99.90
10388;DHT22;5240;51.128;4.566;2023-09-12T07:27:07;20.30;99.90
10388;DHT22;5240;51.128;4.566;2023-09-12T07:29:34;20.40;99.90
10388;DHT22;5240;51.128;4.566;2023-09-12T07:32:01;20.50;99.90
10388;DHT22;5240;51.128;4.566;2023-09-12T07:34:28;20.60;99.90
10388;DHT22;5240;51.128;4.566;2023-09-12T07:36:55;20.70;99.90
10388;DHT22;5240;51.128;4.566;2023-09-12T07:39:22;20.80;99.90
10388;DHT22;5240;51.128;4.566;2023-09-12T07:41:49;20.90;99.90
10388;DHT22;5240;51.128;4.566;2023-09-12T07:44:18;21.00;99.90
10388;DHT22;5240;51.128;4.566;2023-09-12T07:46:46;21.10;99.90
10388;DHT22;5240;51.128;4.566;2023-09-12T07:49:13;21.10;99.90
10388;DHT22;5240;51.128;4.566;2023-09-12T07:51:40;21.20;99.90
10388;DHT22;5240;51.128;4.566;2023-09-12T07:54:07;21.30;99.90
10388;DHT22;5240;51.128;4.566;2023-09-12T07:56:35;21.50;99.90
10388;DHT22;5240;51.128;4.566;2023-09-12T07:59:05;21.60;99.90
10388;DHT22;5240;51.128;4.566;2023-09-12T08:01:48;21.70;99.90
10388;DHT22;5240;51.128;4.566;2023-09-12T08:04:15;21.90;99.90
10388;DHT22;5240;51.128;4.566;2023-09-12T08:06:42;21.90;99.90
10388;DHT22;5240;51.128;4.566;2023-09-12T08:09:16;21.80;99.90
10388;DHT22;5240;51.128;4.566;2023-09-12T08:11:43;21.70;99.90
10388;DHT22;5240;51.128;4.566;2023-09-12T08:14:10;21.60;99.90
10388;DHT22;5240;51.128;4.566;2023-09-12T08:16:37;21.50;99.90
10388;DHT22;5240;51.128;4.566;2023-09-12T08:21:41;21.40;99.90
10388;DHT22;5240;51.128;4.566;2023-09-12T08:24:08;21.50;99.90
10388;DHT22;5240;51.128;4.566;2023-09-12T08:26:38;21.50;99.90
10388;DHT22;5240;51.128;4.566;2023-09-12T08:29:07;21.50;99.90
10388;DHT22;5240;51.128;4.566;2023-09-12T08:31:36;21.50;99.90
10388;DHT22;5240;51.128;4.566;2023-09-12T08:34:03;21.60;99.90
10388;DHT22;5240;51.128;4.566;2023-09-12T08:36:30;21.70;99.90
10388;DHT22;5240;51.128;4.566;2023-09-12T08:38:58;21.80;99.90
10388;DHT22;5240;51.128;4.566;2023-09-12T08:41:26;22.00;99.90
10388;DHT22;5240;51.128;4.566;2023-09-12T08:43:54;22.20;99.90
10388;DHT22;5240;51.128;4.566;2023-09-12T08:46:22;22.50;99.90
10388;DHT22;5240;51.128;4.566;2023-09-12T08:48:50;22.60;99.90
10388;DHT22;5240;51.128;4.566;2023-09-12T08:51:17;22.70;99.90
10388;DHT22;5240;51.128;4.566;2023-09-12T08:53:45;22.70;99.90
10388;DHT22;5240;51.128;4.566;2023-09-12T08:56:13;22.90;99.90
10388;DHT22;5240;51.128;4.566;2023-09-12T08:58:41;23.40;99.90
10388;DHT22;5240;51.128;4.566;2023-09-12T09:01:09;23.90;99.90
10388;DHT22;5240;51.128;4.566;2023-09-12T09:03:37;24.10;99.90
10388;DHT22;5240;51.128;4.566;2023-09-12T09:06:05;24.50;99.90
10388;DHT22;5240;51.128;4.566;2023-09-12T09:08:34;25.00;99.90
10388;DHT22;5240;51.128;4.566;2023-09-12T09:11:01;25.00;99.90
10388;DHT22;5240;51.128;4.566;2023-09-12T09:13:33;25.20;99.90
10388;DHT22;5240;51.128;4.566;2023-09-12T09:16:11;25.80;99.90
10388;DHT22;5240;51.128;4.566;2023-09-12T09:18:52;26.00;99.90
10388;DHT22;5240;51.128;4.566;2023-09-12T09:21:20;26.20;99.90
10388;DHT22;5240;51.128;4.566;2023-09-12T09:23:50;26.40;99.90
10388;DHT22;5240;51.128;4.566;2023-09-12T09:26:18;26.50;99.90
10388;DHT22;5240;51.128;4.566;2023-09-12T09:29:00;27.10;99.90
10388;DHT22;5240;51.128;4.566;2023-09-12T09:31:27;27.60;99.90
10388;DHT22;5240;51.128;4.566;2023-09-12T09:33:55;27.30;99.90
10388;DHT22;5240;51.128;4.566;2023-09-12T09:36:22;27.10;99.90
10388;DHT22;5240;51.128;4.566;2023-09-12T09:38:49;26.40;99.90
10388;DHT22;5240;51.128;4.566;2023-09-12T09:41:20;26.10;99.90
10388;DHT22;5240;51.128;4.566;2023-09-12T09:43:51;25.90;99.90
10388;DHT22;5240;51.128;4.566;2023-09-12T09:46:18;25.90;99.90
10388;DHT22;5240;51.128;4.566;2023-09-12T09:48:49;26.10;99.90
10388;DHT22;5240;51.128;4.566;2023-09-12T09:51:16;26.30;99.90
10388;DHT22;5240;51.128;4.566;2023-09-12T09:53:43;26.70;99.90
10388;DHT22;5240;51.128;4.566;2023-09-12T09:56:11;26.20;99.90
10388;DHT22;5240;51.128;4.566;2023-09-12T09:58:46;26.20;99.90
10388;DHT22;5240;51.128;4.566;2023-09-12T10:01:18;26.70;99.90
10388;DHT22;5240;51.128;4.566;2023-09-12T10:03:46;26.90;99.90
10388;DHT22;5240;51.128;4.566;2023-09-12T10:06:15;27.30;99.90
10388;DHT22;5240;51.128;4.566;2023-09-12T10:11:22;28.50;99.90
10388;DHT22;5240;51.128;4.566;2023-09-12T10:13:52;28.10;99.90
10388;DHT22;5240;51.128;4.566;2023-09-12T10:16:23;28.20;99.90
10388;DHT22;5240;51.128;4.566;2023-09-12T10:18:58;28.60;99.90
10388;DHT22;5240;51.128;4.566;2023-09-12T10:21:31;29.50;99.90
10388;DHT22;5240;51.128;4.566;2023-09-12T10:24:06;29.60;99.90
10388;DHT22;5240;51.128;4.566;2023-09-12T10:26:46;29.20;99.90
10388;DHT22;5240;51.128;4.566;2023-09-12T10:29:15;29.20;99.90
10388;DHT22;5240;51.128;4.566;2023-09-12T10:31:43;29.60;99.90
10388;DHT22;5240;51.128;4.566;2023-09-12T10:34:13;30.10;99.90
10388;DHT22;5240;51.128;4.566;2023-09-12T10:36:42;29.50;99.90
10388;DHT22;5240;51.128;4.566;2023-09-12T10:39:12;29.50;99.90
10388;DHT22;5240;51.128;4.566;2023-09-12T10:41:42;29.70;99.90
10388;DHT22;5240;51.128;4.566;2023-09-12T10:44:11;29.60;99.90
10388;DHT22;5240;51.128;4.566;2023-09-12T10:46:40;30.10;99.90
10388;DHT22;5240;51.128;4.566;2023-09-12T10:49:11;30.50;99.90
10388;DHT22;5240;51.128;4.566;2023-09-12T10:51:38;30.80;99.90
10388;DHT22;5240;51.128;4.566;2023-09-12T10:54:07;30.80;99.90
10388;DHT22;5240;51.128;4.566;2023-09-12T10:56:35;31.10;99.90
10388;DHT22;5240;51.128;4.566;2023-09-12T10:59:13;31.10;99.90
10388;DHT22;5240;51.128;4.566;2023-09-12T11:01:42;30.70;99.90
10388;DHT22;5240;51.128;4.566;2023-09-12T11:04:32;31.20;99.90
10388;DHT22;5240;51.128;4.566;2023-09-12T11:10:22;32.10;99.90
10388;DHT22;5240;51.128;4.566;2023-09-12T11:12:51;31.90;99.90
10388;DHT22;5240;51.128;4.566;2023-09-12T11:15:19;31.70;99.90
10388;DHT22;5240;51.128;4.566;2023-09-12T11:17:48;31.60;99.90
10388;DHT22;5240;51.128;4.566;2023-09-12T11:20:19;30.70;99.90
10388;DHT22;5240;51.128;4.566;2023-09-12T11:22:47;31.60;99.90
10388;DHT22;5240;51.128;4.566;2023-09-12T11:25:21;31.20;99.90
10388;DHT22;5240;51.128;4.566;2023-09-12T11:28:04;30.90;99.90
10388;DHT22;5240;51.128;4.566;2023-09-12T11:30:32;31.90;99.90
10388;DHT22;5240;51.128;4.566;2023-09-12T11:33:03;33.30;99.90
10388;DHT22;5240;51.128;4.566;2023-09-12T11:35:37;33.60;99.90
10388;DHT22;5240;51.128;4.566;2023-09-12T11:38:10;32.80;99.90
10388;DHT22;5240;51.128;4.566;2023-09-12T11:40:42;33.00;99.90
10388;DHT22;5240;51.128;4.566;2023-09-12T11:43:19;32.90;99.90
10388;DHT22;5240;51.128;4.566;2023-09-12T11:45:47;32.40;99.90
10388;DHT22;5240;51.128;4.566;2023-09-12T11:48:14;32.50;99.90
10388;DHT22;5240;51.128;4.566;2023-09-12T11:51:01;32.60;99.90
10388;DHT22;5240;51.128;4.566;2023-09-12T11:53:49;32.60;99.90
10388;DHT22;5240;51.128;4.566;2023-09-12T11:56:20;32.50;99.90
10388;DHT22;5240;51.128;4.566;2023-09-12T11:58:48;32.90;99.90
10388;DHT22;5240;51.128;4.566;2023-09-12T12:01:16;32.90;99.90
10388;DHT22;5240;51.128;4.566;2023-09-12T12:03:44;32.50;99.90
10388;DHT22;5240;51.128;4.566;2023-09-12T12:06:13;32.50;99.90
10388;DHT22;5240;51.128;4.566;2023-09-12T12:08:41;31.90;99.90
10388;DHT22;5240;51.128;4.566;2023-09-12T12:11:10;30.80;99.90
10388;DHT22;5240;51.128;4.566;2023-09-12T12:13:37;29.90;99.90
10388;DHT22;5240;51.128;4.566;2023-09-12T12:16:15;29.10;99.90
10388;DHT22;5240;51.128;4.566;2023-09-12T12:18:42;29.00;99.90
10388;DHT22;5240;51.128;4.566;2023-09-12T12:21:09;29.60;99.90
10388;DHT22;5240;51.128;4.566;2023-09-12T12:23:38;29.70;99.90
10388;DHT22;5240;51.128;4.566;2023-09-12T12:26:07;30.20;99.90
10388;DHT22;5240;51.128;4.566;2023-09-12T12:28:36;30.10;99.90
10388;DHT22;5240;51.128;4.566;2023-09-12T12:31:04;29.30;99.90
10388;DHT22;5240;51.128;4.566;2023-09-12T12:33:40;28.60;99.90
10388;DHT22;5240;51.128;4.566;2023-09-12T12:36:15;28.70;99.90
10388;DHT22;5240;51.128;4.566;2023-09-12T12:38:47;28.80;99.90
10388;DHT22;5240;51.128;4.566;2023-09-12T12:41:15;29.70;99.90
10388;DHT22;5240;51.128;4.566;2023-09-12T12:43:43;31.00;99.90
10388;DHT22;5240;51.128;4.566;2023-09-12T12:46:11;32.50;99.90
10388;DHT22;5240;51.128;4.566;2023-09-12T12:48:43;33.80;99.90
10388;DHT22;5240;51.128;4.566;2023-09-12T12:51:15;34.80;99.90
10388;DHT22;5240;51.128;4.566;2023-09-12T12:53:46;35.70;99.90
10388;DHT22;5240;51.128;4.566;2023-09-12T12:56:17;35.30;99.90
10388;DHT22;5240;51.128;4.566;2023-09-12T12:58:48;34.00;99.90
10388;DHT22;5240;51.128;4.566;2023-09-12T13:01:21;32.10;99.90
10388;DHT22;5240;51.128;4.566;2023-09-12T13:09:16;30.80;99.90
10388;DHT22;5240;51.128;4.566;2023-09-12T13:14:23;30.10;99.90
10388;DHT22;5240;51.128;4.566;2023-09-12T13:16:57;29.50;99.90
10388;DHT22;5240;51.128;4.566;2023-09-12T13:19:26;29.10;99.90
10388;DHT22;5240;51.128;4.566;2023-09-12T13:22:04;28.90;99.90
10388;DHT22;5240;51.128;4.566;2023-09-12T13:57:37;26.70;99.90
10388;DHT22;5240;51.128;4.566;2023-09-12T14:00:05;26.70;99.90
10388;DHT22;5240;51.128;4.566;2023-09-12T14:05:08;26.60;99.90
10388;DHT22;5240;51.128;4.566;2023-09-12T14:07:35;26.60;99.90
10388;DHT22;5240;51.128;4.566;2023-09-12T14:10:02;26.50;99.90
10388;DHT22;5240;51.128;4.566;2023-09-12T14:12:31;26.40;99.90
10388;DHT22;5240;51.128;4.566;2023-09-12T14:14:57;26.40;99.90
10388;DHT22;5240;51.128;4.566;2023-09-12T14:17:24;26.40;99.90
10388;DHT22;5240;51.128;4.566;2023-09-12T14:19:52;26.50;99.90
10388;DHT22;5240;51.128;4.566;2023-09-12T14:22:19;26.60;99.90
10388;DHT22;5240;51.128;4.566;2023-09-12T14:24:46;26.60;99.90
10388;DHT22;5240;51.128;4.566;2023-09-12T14:27:13;26.50;99.90
10388;DHT22;5240;51.128;4.566;2023-09-12T14:29:42;26.50;99.90
10388;DHT22;5240;51.128;4.566;2023-09-12T14:32:11;26.50;99.90
10388;DHT22;5240;51.128;4.566;2023-09-12T14:34:38;26.60;99.90
10388;DHT22;5240;51.128;4.566;2023-09-12T14:37:06;26.60;99.90
10388;DHT22;5240;51.128;4.566;2023-09-12T14:39:47;26.60;99.90
10388;DHT22;5240;51.128;4.566;2023-09-12T14:42:14;26.60;99.90
10388;DHT22;5240;51.128;4.566;2023-09-12T14:44:43;26.50;99.90
10388;DHT22;5240;51.128;4.566;2023-09-12T14:47:10;26.40;99.90
10388;DHT22;5240;51.128;4.566;2023-09-12T14:49:37;26.30;99.90
10388;DHT22;5240;51.128;4.566;2023-09-12T14:52:05;26.20;99.90
10388;DHT22;5240;51.128;4.566;2023-09-12T14:54:32;26.00;99.90
10388;DHT22;5240;51.128;4.566;2023-09-12T14:56:59;25.90;99.90
10388;DHT22;5240;51.128;4.566;2023-09-12T14:59:26;25.90;99.90
10388;DHT22;5240;51.128;4.566;2023-09-12T15:01:54;25.80;99.90
10388;DHT22;5240;51.128;4.566;2023-09-12T15:04:21;25.70;99.90
10388;DHT22;5240;51.128;4.566;2023-09-12T15:06:49;25.80;99.90
10388;DHT22;5240;51.128;4.566;2023-09-12T15:09:16;25.70;99.90
10388;DHT22;5240;51.128;4.566;2023-09-12T15:11:43;25.70;99.90
10388;DHT22;5240;51.128;4.566;2023-09-12T15:14:10;25.70;99.90
10388;DHT22;5240;51.128;4.566;2023-09-12T15:16:37;25.60;99.90
10388;DHT22;5240;51.128;4.566;2023-09-12T15:19:05;25.60;99.90
10388;DHT22;5240;51.128;4.566;2023-09-12T15:21:32;25.50;99.90
10388;DHT22;5240;51.128;4.566;2023-09-12T15:23:59;25.50;99.90
10388;DHT22;5240;51.128;4.566;2023-09-12T15:26:26;25.50;99.90
10388;DHT22;5240;51.128;4.566;2023-09-12T15:28:53;25.50;99.90
10388;DHT22;5240;51.128;4.566;2023-09-12T15:31:20;25.60;99.90
10388;DHT22;5240;51.128;4.566;2023-09-12T15:33:46;25.60;99.90
10388;DHT22;5240;51.128;4.566;2023-09-12T15:36:14;25.40;99.90
10388;DHT22;5240;51.128;4.566;2023-09-12T15:38:41;25.40;99.90
10388;DHT22;5240;51.128;4.566;2023-09-12T15:41:08;25.40;99.90
10388;DHT22;5240;51.128;4.566;2023-09-12T15:43:35;25.30;99.90
10388;DHT22;5240;51.128;4.566;2023-09-12T15:46:02;25.20;99.90
10388;DHT22;5240;51.128;4.566;2023-09-12T15:48:29;25.20;99.90
10388;DHT22;5240;51.128;4.566;2023-09-12T15:50:56;25.20;99.90
10388;DHT22;5240;51.128;4.566;2023-09-12T15:53:25;25.20;99.90
10388;DHT22;5240;51.128;4.566;2023-09-12T15:55:52;25.20;99.90
10388;DHT22;5240;51.128;4.566;2023-09-12T15:58:18;25.10;99.90
10388;DHT22;5240;51.128;4.566;2023-09-12T16:00:46;25.00;99.90
10388;DHT22;5240;51.128;4.566;2023-09-12T16:03:13;24.80;99.90
10388;DHT22;5240;51.128;4.566;2023-09-12T16:05:39;24.70;99.90
10388;DHT22;5240;51.128;4.566;2023-09-12T16:08:07;24.70;99.90
10388;DHT22;5240;51.128;4.566;2023-09-12T16:10:36;24.70;99.90
10388;DHT22;5240;51.128;4.566;2023-09-12T16:13:03;24.70;99.90
10388;DHT22;5240;51.128;4.566;2023-09-12T16:15:32;24.60;99.90
10388;DHT22;5240;51.128;4.566;2023-09-12T16:17:59;24.50;99.90
10388;DHT22;5240;51.128;4.566;2023-09-12T16:20:26;24.40;99.90
10388;DHT22;5240;51.128;4.566;2023-09-12T16:22:58;24.30;99.90
10388;DHT22;5240;51.128;4.566;2023-09-12T16:25:28;24.20;99.90
10388;DHT22;5240;51.128;4.566;2023-09-12T16:27:57;24.20;99.90
10388;DHT22;5240;51.128;4.566;2023-09-12T16:30:24;24.20;99.90
10388;DHT22;5240;51.128;4.566;2023-09-12T16:32:50;24.10;99.90
10388;DHT22;5240;51.128;4.566;2023-09-12T16:35:18;24.10;99.90
10388;DHT22;5240;51.128;4.566;2023-09-12T16:37:44;24.10;99.90
10388;DHT22;5240;51.128;4.566;2023-09-12T16:40:12;24.00;99.90
10388;DHT22;5240;51.128;4.566;2023-09-12T16:42:40;24.00;99.90
10388;DHT22;5240;51.128;4.566;2023-09-12T16:45:09;23.90;99.90